Accueil
METAR-TAF:

METAR-TAF

Aéroports :

Roi Et, Thaïlande

latitude: 16-07-00N, longitude: 103-46-26E, altitude: 138 m

Observation

Le bulletin a été fait il y a 11 minutes, à 02:00 UTC
Vent 5 kt de sud
Température 29°C
Humidité 84%
Pression 1005 hPa
Visibilité 10 km ou plus
Nuages épars à une hauteur de 3000 ft
Nuages fragmentés à une hauteur de 8000 ft

METAR: VTUV 220200Z 18005KT 9999 SCT030 BKN080 29/26 Q1005 NOSIG

Heure: 09:11 (02:11 UTC)

Prévision

Le bulletin a été fait il y a 3 heures et 11 minutes, à 23:00 UTC
Prévision valable du 22 à 00 UTC au 22 à 24 UTC
Vent 5 kt de sud/sud-ouest
Visibilité: 9000 m
Nuages épars à une hauteur de 3000 ft
Temporairement
du 22 à 05 UTC au 22 à 12 UTC
Quelques nuages à une hauteur de 1800 ft, Cumulonimbus.
Nuages fragmentés à une hauteur de 2500 ft
orage, pluie faible,

TAF: VTUV 212300Z 2200/2224 20005KT 9000 SCT030 TEMPO 2205/2212 -TSRA FEW018CB BKN025

Observations et prévisions météorologiques de plus de 4000 aéroports (messages METAR et TAF).

Les stations disponibles sont représentées par des disques jaunes et rouges sur la carte.

Passer la souris dessus pour voir le nom de la station.

Cliquer dessus pour voir les observations et prévisions météorologiques.

Pour changer de carte: cliquez sur les boutons verts avec une croix noire pour zoomer, sur le bouton vert avec un tiret pour effectuer un zoom arrière, ou sur les flèches vertes pour les cartes adjacentes.


METAR-TAF: